KVEL/VEL METAR and TAF weather

Enter ICAO airport designator
Station Type Date Time Source
KVEL METAR 2019/06/27 07:53 UTC NOAA

KVEL 270753Z AUTO 27007KT 10SM CLR 14/01 A3005 RMK AO2 SLP108 T01390006


Station Type Date Time Source
KVEL Decoded METAR 2019/06/27 07:53 UTC NOAA

VERNAL AIRPORT, UT, United States (KVEL) 40-26N 109-30W 1604M
Jun 27, 2019 - 03:53 AM EDT / 2019.06.27 0753 UTC
Wind: from the W (270 degrees) at 8 MPH (7 KT):0
Visibility: 10 mile(s):0
Sky conditions: clear
Temperature: 57.0 F (13.9 C)
Dew Point: 33.1 F (0.6 C)
Relative Humidity: 40%
Pressure (altimeter): 30.05 in. Hg (1017 hPa)
ob: KVEL 270753Z AUTO 27007KT 10SM CLR 14/01 A3005 RMK AO2 SLP108 T01390006
cycle: 8

Station Type Date Time Source
KVEL TAF 2019/06/27 06:45 UTC NOAA

TAF KVEL 270541Z 2706/2806 31005KT P6SM SKC
FM271600 VRB03KT P6SM SKC
FM272000 20012KT P6SM SKC
FM272300 22014G22KT P6SM FEW150 FEW250
FM280200 23008KT P6SM FEW150 FEW250

Example: see airport list